sensor_id;sensor_type;location;lat;lon;timestamp;pressure;altitude;pressure_sealevel;temperature;humidity
75759;BME280;64371;47.566;19.086;2022-12-08T00:02:48;100408.41;;;-0.44;88.93
75759;BME280;64371;47.566;19.086;2022-12-08T00:05:51;100404.19;;;-0.38;89.16
75759;BME280;64371;47.566;19.086;2022-12-08T00:09:36;100398.00;;;-0.37;88.80
75759;BME280;64371;47.566;19.086;2022-12-08T00:12:40;100396.03;;;-0.42;89.74
75759;BME280;64371;47.566;19.086;2022-12-08T00:15:43;100393.03;;;-0.39;89.64
75759;BME280;64371;47.566;19.086;2022-12-08T00:18:45;100394.66;;;-0.44;89.11
75759;BME280;64371;47.566;19.086;2022-12-08T00:21:47;100396.88;;;-0.54;89.44
75759;BME280;64371;47.566;19.086;2022-12-08T00:24:50;100395.06;;;-0.47;90.07
75759;BME280;64371;47.566;19.086;2022-12-08T00:27:52;100394.25;;;-0.41;89.82
75759;BME280;64371;47.566;19.086;2022-12-08T00:30:54;100408.41;;;-0.50;89.88
75759;BME280;64371;47.566;19.086;2022-12-08T00:33:57;100403.03;;;-0.55;90.18
75759;BME280;64371;47.566;19.086;2022-12-08T00:37:00;100399.91;;;-0.64;89.90
75759;BME280;64371;47.566;19.086;2022-12-08T00:40:02;100409.44;;;-0.58;91.08
75759;BME280;64371;47.566;19.086;2022-12-08T00:43:05;100417.56;;;-0.48;91.57
75759;BME280;64371;47.566;19.086;2022-12-08T00:46:08;100414.97;;;-0.41;90.87
75759;BME280;64371;47.566;19.086;2022-12-08T00:49:11;100412.34;;;-0.35;91.10
75759;BME280;64371;47.566;19.086;2022-12-08T00:52:13;100422.28;;;-0.32;91.13
75759;BME280;64371;47.566;19.086;2022-12-08T00:55:16;100419.44;;;-0.24;90.51
75759;BME280;64371;47.566;19.086;2022-12-08T00:58:18;100405.56;;;-0.29;90.51
75759;BME280;64371;47.566;19.086;2022-12-08T01:01:20;100415.66;;;-0.15;90.64
75759;BME280;64371;47.566;19.086;2022-12-08T01:04:23;100415.19;;;-0.12;90.03
75759;BME280;64371;47.566;19.086;2022-12-08T01:07:26;100419.97;;;-0.09;90.57
75759;BME280;64371;47.566;19.086;2022-12-08T01:10:29;100413.81;;;-0.08;89.85
75759;BME280;64371;47.566;19.086;2022-12-08T01:13:34;100404.19;;;-0.01;89.45
75759;BME280;64371;47.566;19.086;2022-12-08T01:16:39;100409.84;;;-0.10;89.16
75759;BME280;64371;47.566;19.086;2022-12-08T01:19:43;100397.94;;;-0.24;88.71
75759;BME280;64371;47.566;19.086;2022-12-08T01:22:46;100420.81;;;-0.15;88.13
75759;BME280;64371;47.566;19.086;2022-12-08T01:25:48;100410.91;;;-0.31;88.41
75759;BME280;64371;47.566;19.086;2022-12-08T01:28:51;100416.34;;;-0.39;89.06
75759;BME280;64371;47.566;19.086;2022-12-08T01:31:53;100418.75;;;-0.50;88.83
75759;BME280;64371;47.566;19.086;2022-12-08T01:34:55;100415.41;;;-0.57;88.81
75759;BME280;64371;47.566;19.086;2022-12-08T01:37:57;100407.09;;;-0.73;88.86
75759;BME280;64371;47.566;19.086;2022-12-08T01:41:00;100412.09;;;-0.78;89.03
75759;BME280;64371;47.566;19.086;2022-12-08T01:47:30;100408.53;;;-0.83;88.61
75759;BME280;64371;47.566;19.086;2022-12-08T01:50:34;100402.19;;;-1.00;88.51
75759;BME280;64371;47.566;19.086;2022-12-08T01:53:37;100394.25;;;-1.18;89.00
75759;BME280;64371;47.566;19.086;2022-12-08T01:56:53;100395.25;;;-1.19;90.39
75759;BME280;64371;47.566;19.086;2022-12-08T02:00:09;100388.28;;;-1.25;89.89
75759;BME280;64371;47.566;19.086;2022-12-08T02:03:15;100399.06;;;-1.28;90.38
75759;BME280;64371;47.566;19.086;2022-12-08T02:06:20;100395.66;;;-1.29;90.79
75759;BME280;64371;47.566;19.086;2022-12-08T02:09:23;100396.06;;;-1.19;91.96
75759;BME280;64371;47.566;19.086;2022-12-08T02:12:25;100397.81;;;-1.13;91.75
75759;BME280;64371;47.566;19.086;2022-12-08T02:22:32;100389.84;;;-1.11;91.25
75759;BME280;64371;47.566;19.086;2022-12-08T02:29:11;100388.25;;;-1.06;90.61
75759;BME280;64371;47.566;19.086;2022-12-08T02:45:29;100371.38;;;-0.51;90.22
75759;BME280;64371;47.566;19.086;2022-12-08T02:48:33;100375.94;;;-0.53;90.25
75759;BME280;64371;47.566;19.086;2022-12-08T02:51:35;100380.88;;;-0.38;89.75
75759;BME280;64371;47.566;19.086;2022-12-08T02:54:43;100368.72;;;-0.38;89.72
75759;BME280;64371;47.566;19.086;2022-12-08T03:07:48;100357.69;;;-0.20;89.90
75759;BME280;64371;47.566;19.086;2022-12-08T03:11:08;100353.66;;;-0.16;89.54
75759;BME280;64371;47.566;19.086;2022-12-08T03:14:14;100347.91;;;-0.18;89.60
75759;BME280;64371;47.566;19.086;2022-12-08T03:17:20;100349.28;;;-0.16;89.51
75759;BME280;64371;47.566;19.086;2022-12-08T03:20:25;100347.03;;;-0.12;89.61
75759;BME280;64371;47.566;19.086;2022-12-08T03:23:29;100360.00;;;-0.12;89.44
75759;BME280;64371;47.566;19.086;2022-12-08T03:26:45;100357.22;;;-0.11;89.40
75759;BME280;64371;47.566;19.086;2022-12-08T03:29:50;100355.44;;;-0.10;89.34
75759;BME280;64371;47.566;19.086;2022-12-08T03:33:29;100350.66;;;-0.13;89.17
75759;BME280;64371;47.566;19.086;2022-12-08T03:36:34;100343.88;;;-0.14;89.31
75759;BME280;64371;47.566;19.086;2022-12-08T03:39:36;100356.41;;;-0.11;89.90
75759;BME280;64371;47.566;19.086;2022-12-08T03:42:38;100359.41;;;-0.08;89.68
75759;BME280;64371;47.566;19.086;2022-12-08T03:45:40;100354.16;;;-0.01;89.85
75759;BME280;64371;47.566;19.086;2022-12-08T03:48:43;100360.34;;;-0.02;89.65
75759;BME280;64371;47.566;19.086;2022-12-08T03:51:45;100357.38;;;-0.06;89.78
75759;BME280;64371;47.566;19.086;2022-12-08T03:54:48;100354.56;;;-0.04;90.29
75759;BME280;64371;47.566;19.086;2022-12-08T03:57:50;100356.59;;;-0.06;89.93
75759;BME280;64371;47.566;19.086;2022-12-08T04:00:53;100356.34;;;0.02;90.18
75759;BME280;64371;47.566;19.086;2022-12-08T04:03:55;100349.94;;;0.05;89.98
75759;BME280;64371;47.566;19.086;2022-12-08T04:06:57;100354.09;;;0.06;89.68
75759;BME280;64371;47.566;19.086;2022-12-08T04:10:00;100346.56;;;0.04;90.33
75759;BME280;64371;47.566;19.086;2022-12-08T04:13:02;100351.09;;;0.09;89.90
75759;BME280;64371;47.566;19.086;2022-12-08T04:16:06;100342.34;;;0.10;89.48
75759;BME280;64371;47.566;19.086;2022-12-08T04:19:09;100344.50;;;0.13;89.42
75759;BME280;64371;47.566;19.086;2022-12-08T04:22:11;100338.53;;;0.12;89.60
75759;BME280;64371;47.566;19.086;2022-12-08T04:25:13;100338.31;;;0.14;89.22
75759;BME280;64371;47.566;19.086;2022-12-08T04:28:16;100327.78;;;0.09;89.26
75759;BME280;64371;47.566;19.086;2022-12-08T04:31:18;100333.75;;;0.09;89.43
75759;BME280;64371;47.566;19.086;2022-12-08T04:34:21;100332.97;;;0.09;89.06
75759;BME280;64371;47.566;19.086;2022-12-08T04:37:23;100322.03;;;0.07;89.22
75759;BME280;64371;47.566;19.086;2022-12-08T04:40:25;100330.53;;;0.14;89.68
75759;BME280;64371;47.566;19.086;2022-12-08T04:43:27;100328.69;;;0.21;89.53
75759;BME280;64371;47.566;19.086;2022-12-08T04:46:30;100330.22;;;0.28;89.79
75759;BME280;64371;47.566;19.086;2022-12-08T04:49:32;100322.63;;;0.27;89.02
75759;BME280;64371;47.566;19.086;2022-12-08T04:52:35;100323.81;;;0.31;89.24
75759;BME280;64371;47.566;19.086;2022-12-08T04:55:41;100320.03;;;0.27;88.99
75759;BME280;64371;47.566;19.086;2022-12-08T04:58:45;100324.47;;;0.26;88.95
75759;BME280;64371;47.566;19.086;2022-12-08T05:01:47;100320.91;;;0.21;88.65
75759;BME280;64371;47.566;19.086;2022-12-08T05:04:50;100327.69;;;0.22;88.72
75759;BME280;64371;47.566;19.086;2022-12-08T05:07:52;100324.06;;;0.23;89.39
75759;BME280;64371;47.566;19.086;2022-12-08T05:11:05;100335.88;;;0.19;88.81
75759;BME280;64371;47.566;19.086;2022-12-08T05:14:10;100336.47;;;0.21;88.50
75759;BME280;64371;47.566;19.086;2022-12-08T05:17:14;100332.88;;;0.22;89.44
75759;BME280;64371;47.566;19.086;2022-12-08T05:20:16;100336.25;;;0.22;89.15
75759;BME280;64371;47.566;19.086;2022-12-08T05:23:19;100338.41;;;0.25;89.18
75759;BME280;64371;47.566;19.086;2022-12-08T05:26:21;100339.44;;;0.24;89.11
75759;BME280;64371;47.566;19.086;2022-12-08T05:29:23;100339.22;;;0.26;89.11
75759;BME280;64371;47.566;19.086;2022-12-08T05:32:26;100326.03;;;0.27;89.21
75759;BME280;64371;47.566;19.086;2022-12-08T05:35:28;100334.19;;;0.31;88.95
75759;BME280;64371;47.566;19.086;2022-12-08T05:38:30;100327.63;;;0.28;89.18
75759;BME280;64371;47.566;19.086;2022-12-08T05:41:33;100325.03;;;0.28;89.14
75759;BME280;64371;47.566;19.086;2022-12-08T05:44:36;100312.88;;;0.29;88.54
75759;BME280;64371;47.566;19.086;2022-12-08T05:47:38;100316.25;;;0.29;87.98
75759;BME280;64371;47.566;19.086;2022-12-08T05:50:48;100307.88;;;0.27;88.33
75759;BME280;64371;47.566;19.086;2022-12-08T05:54:01;100307.88;;;0.27;88.82
75759;BME280;64371;47.566;19.086;2022-12-08T05:57:03;100310.47;;;0.27;88.31
75759;BME280;64371;47.566;19.086;2022-12-08T06:00:17;100320.44;;;0.30;88.81
75759;BME280;64371;47.566;19.086;2022-12-08T06:03:20;100316.41;;;0.34;88.97
75759;BME280;64371;47.566;19.086;2022-12-08T06:06:23;100323.97;;;0.36;89.07
75759;BME280;64371;47.566;19.086;2022-12-08T06:09:26;100327.94;;;0.38;89.05
75759;BME280;64371;47.566;19.086;2022-12-08T06:12:28;100326.56;;;0.36;88.59
75759;BME280;64371;47.566;19.086;2022-12-08T06:15:33;100334.94;;;0.38;88.14
75759;BME280;64371;47.566;19.086;2022-12-08T06:18:35;100338.50;;;0.37;88.30
75759;BME280;64371;47.566;19.086;2022-12-08T06:21:40;100336.72;;;0.37;88.00
75759;BME280;64371;47.566;19.086;2022-12-08T06:24:43;100349.28;;;0.40;87.57
75759;BME280;64371;47.566;19.086;2022-12-08T06:27:45;100339.72;;;0.34;87.61
75759;BME280;64371;47.566;19.086;2022-12-08T06:30:48;100351.47;;;0.37;88.31
75759;BME280;64371;47.566;19.086;2022-12-08T06:33:54;100347.09;;;0.37;87.31
75759;BME280;64371;47.566;19.086;2022-12-08T06:37:00;100347.47;;;0.41;87.97
75759;BME280;64371;47.566;19.086;2022-12-08T06:40:02;100351.22;;;0.45;88.19
75759;BME280;64371;47.566;19.086;2022-12-08T06:43:05;100350.16;;;0.52;87.91
75759;BME280;64371;47.566;19.086;2022-12-08T06:46:11;100350.47;;;0.62;87.68
75759;BME280;64371;47.566;19.086;2022-12-08T06:49:13;100346.44;;;0.66;87.88
75759;BME280;64371;47.566;19.086;2022-12-08T06:52:16;100344.78;;;0.72;87.28
75759;BME280;64371;47.566;19.086;2022-12-08T06:55:18;100347.53;;;0.77;87.29
75759;BME280;64371;47.566;19.086;2022-12-08T06:58:41;100358.66;;;0.84;87.41
75759;BME280;64371;47.566;19.086;2022-12-08T07:01:51;100357.56;;;0.92;87.13
75759;BME280;64371;47.566;19.086;2022-12-08T07:04:53;100354.91;;;0.98;87.01
75759;BME280;64371;47.566;19.086;2022-12-08T07:07:56;100345.31;;;0.99;86.59
75759;BME280;64371;47.566;19.086;2022-12-08T07:10:58;100355.25;;;1.02;86.68
75759;BME280;64371;47.566;19.086;2022-12-08T07:14:00;100354.19;;;1.09;87.20
75759;BME280;64371;47.566;19.086;2022-12-08T07:17:03;100347.69;;;1.18;86.58
75759;BME280;64371;47.566;19.086;2022-12-08T07:20:06;100352.59;;;1.26;86.60
75759;BME280;64371;47.566;19.086;2022-12-08T07:23:09;100333.25;;;1.22;85.45
75759;BME280;64371;47.566;19.086;2022-12-08T07:26:12;100345.38;;;1.28;85.85
75759;BME280;64371;47.566;19.086;2022-12-08T07:29:14;100348.09;;;1.33;86.05
75759;BME280;64371;47.566;19.086;2022-12-08T07:32:16;100350.28;;;1.37;86.04
75759;BME280;64371;47.566;19.086;2022-12-08T07:35:19;100346.00;;;1.42;85.49
75759;BME280;64371;47.566;19.086;2022-12-08T07:38:22;100347.72;;;1.48;85.94
75759;BME280;64371;47.566;19.086;2022-12-08T07:41:25;100341.28;;;1.51;84.59
75759;BME280;64371;47.566;19.086;2022-12-08T07:44:27;100339.50;;;1.51;84.93
75759;BME280;64371;47.566;19.086;2022-12-08T07:47:30;100346.19;;;1.59;84.81
75759;BME280;64371;47.566;19.086;2022-12-08T07:50:32;100340.84;;;1.72;84.46
75759;BME280;64371;47.566;19.086;2022-12-08T07:53:35;100336.22;;;1.85;83.26
75759;BME280;64371;47.566;19.086;2022-12-08T07:56:37;100348.03;;;1.99;83.23
75759;BME280;64371;47.566;19.086;2022-12-08T07:59:40;100334.91;;;2.06;83.38
75759;BME280;64371;47.566;19.086;2022-12-08T08:02:42;100329.50;;;2.08;82.30
75759;BME280;64371;47.566;19.086;2022-12-08T08:05:44;100336.63;;;2.12;82.38
75759;BME280;64371;47.566;19.086;2022-12-08T08:08:49;100312.91;;;2.20;82.35
75759;BME280;64371;47.566;19.086;2022-12-08T08:11:54;100340.41;;;2.62;81.13
75759;BME280;64371;47.566;19.086;2022-12-08T08:15:16;100338.97;;;3.58;78.42
75759;BME280;64371;47.566;19.086;2022-12-08T08:18:20;100342.97;;;3.77;76.24
75759;BME280;64371;47.566;19.086;2022-12-08T08:21:22;100345.09;;;3.80;76.01
75759;BME280;64371;47.566;19.086;2022-12-08T08:24:44;100353.53;;;3.70;75.96
75759;BME280;64371;47.566;19.086;2022-12-08T08:27:47;100348.78;;;3.67;75.64
75759;BME280;64371;47.566;19.086;2022-12-08T08:30:49;100341.53;;;3.69;75.53
75759;BME280;64371;47.566;19.086;2022-12-08T08:33:52;100336.31;;;3.69;74.92
75759;BME280;64371;47.566;19.086;2022-12-08T08:36:55;100344.53;;;3.78;74.59
75759;BME280;64371;47.566;19.086;2022-12-08T08:39:58;100350.03;;;3.65;75.35
75759;BME280;64371;47.566;19.086;2022-12-08T08:43:02;100339.63;;;3.65;75.30
75759;BME280;64371;47.566;19.086;2022-12-08T08:46:05;100332.28;;;3.78;74.92
75759;BME280;64371;47.566;19.086;2022-12-08T08:49:08;100339.03;;;3.91;73.49
75759;BME280;64371;47.566;19.086;2022-12-08T08:52:10;100344.19;;;4.02;72.72
75759;BME280;64371;47.566;19.086;2022-12-08T08:55:12;100344.25;;;4.08;72.98
75759;BME280;64371;47.566;19.086;2022-12-08T08:58:15;100336.84;;;4.16;73.48
75759;BME280;64371;47.566;19.086;2022-12-08T09:01:20;100331.38;;;4.34;73.36
75759;BME280;64371;47.566;19.086;2022-12-08T09:04:23;100318.03;;;4.47;72.36
75759;BME280;64371;47.566;19.086;2022-12-08T09:07:26;100321.50;;;4.53;70.50
75759;BME280;64371;47.566;19.086;2022-12-08T09:10:29;100328.69;;;4.62;71.24
75759;BME280;64371;47.566;19.086;2022-12-08T09:13:31;100320.09;;;4.45;71.05
75759;BME280;64371;47.566;19.086;2022-12-08T09:16:33;100335.19;;;4.27;71.71
75759;BME280;64371;47.566;19.086;2022-12-08T09:19:43;100314.84;;;4.12;72.42
75759;BME280;64371;47.566;19.086;2022-12-08T09:22:45;100311.78;;;4.15;71.94
75759;BME280;64371;47.566;19.086;2022-12-08T09:25:48;100302.94;;;4.16;72.05
75759;BME280;64371;47.566;19.086;2022-12-08T09:28:53;100303.88;;;4.27;71.87
75759;BME280;64371;47.566;19.086;2022-12-08T09:31:56;100305.72;;;4.26;72.08
75759;BME280;64371;47.566;19.086;2022-12-08T09:34:58;100296.91;;;4.32;72.40
75759;BME280;64371;47.566;19.086;2022-12-08T09:38:00;100307.91;;;4.34;nan
75759;BME280;64371;47.566;19.086;2022-12-08T09:41:08;100304.41;;;4.29;72.31
75759;BME280;64371;47.566;19.086;2022-12-08T09:47:27;100295.97;;;4.22;72.27
75759;BME280;64371;47.566;19.086;2022-12-08T09:50:42;100288.31;;;4.15;72.82
75759;BME280;64371;47.566;19.086;2022-12-08T09:53:57;100271.09;;;4.14;72.81
75759;BME280;64371;47.566;19.086;2022-12-08T09:57:06;100265.16;;;4.19;72.65
75759;BME280;64371;47.566;19.086;2022-12-08T10:00:12;100256.59;;;4.23;72.35
75759;BME280;64371;47.566;19.086;2022-12-08T10:03:15;100249.16;;;4.32;72.53
75759;BME280;64371;47.566;19.086;2022-12-08T10:06:26;100251.56;;;4.55;71.80
75759;BME280;64371;47.566;19.086;2022-12-08T10:09:49;100268.94;;;4.66;71.18
75759;BME280;64371;47.566;19.086;2022-12-08T10:13:22;100272.41;;;4.72;71.04
75759;BME280;64371;47.566;19.086;2022-12-08T10:16:40;100278.03;;;4.85;70.76
75759;BME280;64371;47.566;19.086;2022-12-08T10:19:46;100288.75;;;4.84;70.41
75759;BME280;64371;47.566;19.086;2022-12-08T10:26:17;100281.09;;;4.77;70.54
75759;BME280;64371;47.566;19.086;2022-12-08T10:29:20;100258.13;;;4.79;70.93
75759;BME280;64371;47.566;19.086;2022-12-08T10:32:23;100259.22;;;4.83;70.64
75759;BME280;64371;47.566;19.086;2022-12-08T10:35:45;100244.56;;;4.82;70.64
75759;BME280;64371;47.566;19.086;2022-12-08T10:38:48;100230.19;;;4.80;71.27
75759;BME280;64371;47.566;19.086;2022-12-08T10:41:50;100233.16;;;4.88;71.13
75759;BME280;64371;47.566;19.086;2022-12-08T10:48:20;100221.75;;;5.21;69.32
75759;BME280;64371;47.566;19.086;2022-12-08T10:51:49;100213.38;;;5.19;69.32
75759;BME280;64371;47.566;19.086;2022-12-08T10:54:52;100214.31;;;5.34;68.98
75759;BME280;64371;47.566;19.086;2022-12-08T10:57:55;100214.25;;;5.56;68.63
75759;BME280;64371;47.566;19.086;2022-12-08T11:01:01;100207.97;;;5.57;68.75
75759;BME280;64371;47.566;19.086;2022-12-08T11:04:09;100205.03;;;5.49;68.92
75759;BME280;64371;47.566;19.086;2022-12-08T11:07:20;100185.94;;;5.48;68.90
75759;BME280;64371;47.566;19.086;2022-12-08T11:10:36;100189.53;;;5.37;69.85
75759;BME280;64371;47.566;19.086;2022-12-08T11:13:43;100188.84;;;5.52;69.55
75759;BME280;64371;47.566;19.086;2022-12-08T11:16:46;100183.72;;;5.62;68.98
75759;BME280;64371;47.566;19.086;2022-12-08T11:20:02;100186.03;;;5.58;68.76
75759;BME280;64371;47.566;19.086;2022-12-08T11:23:22;100169.75;;;5.51;70.01
75759;BME280;64371;47.566;19.086;2022-12-08T11:26:31;100160.50;;;5.38;69.10
75759;BME280;64371;47.566;19.086;2022-12-08T11:29:34;100156.72;;;5.24;69.75
75759;BME280;64371;47.566;19.086;2022-12-08T11:32:40;100155.66;;;5.20;70.25
75759;BME280;64371;47.566;19.086;2022-12-08T11:35:46;100149.69;;;5.25;70.38
75759;BME280;64371;47.566;19.086;2022-12-08T11:38:55;100147.66;;;5.32;70.18
75759;BME280;64371;47.566;19.086;2022-12-08T11:41:59;100122.56;;;5.04;71.44
75759;BME280;64371;47.566;19.086;2022-12-08T11:45:11;100122.41;;;5.11;71.43
75759;BME280;64371;47.566;19.086;2022-12-08T11:48:19;100114.78;;;5.09;71.26
75759;BME280;64371;47.566;19.086;2022-12-08T11:51:38;100099.56;;;5.01;71.20
75759;BME280;64371;47.566;19.086;2022-12-08T11:54:47;100094.03;;;4.98;71.88
75759;BME280;64371;47.566;19.086;2022-12-08T11:57:53;100091.97;;;5.00;71.77
75759;BME280;64371;47.566;19.086;2022-12-08T12:00:58;100103.22;;;5.00;72.12
75759;BME280;64371;47.566;19.086;2022-12-08T12:14:33;100101.31;;;4.91;73.97
75759;BME280;64371;47.566;19.086;2022-12-08T12:18:00;100106.00;;;4.89;73.83
75759;BME280;64371;47.566;19.086;2022-12-08T12:21:16;100106.63;;;4.74;74.38
75759;BME280;64371;47.566;19.086;2022-12-08T12:24:31;100107.66;;;4.73;74.56
75759;BME280;64371;47.566;19.086;2022-12-08T12:27:38;100109.13;;;4.64;74.82
75759;BME280;64371;47.566;19.086;2022-12-08T12:31:11;100110.53;;;4.50;75.06
75759;BME280;64371;47.566;19.086;2022-12-08T12:34:36;100110.44;;;4.40;75.43
75759;BME280;64371;47.566;19.086;2022-12-08T12:37:41;100111.72;;;4.37;75.83
75759;BME280;64371;47.566;19.086;2022-12-08T12:40:44;100091.91;;;4.41;75.79
75759;BME280;64371;47.566;19.086;2022-12-08T12:47:46;100112.69;;;4.53;75.78
75759;BME280;64371;47.566;19.086;2022-12-08T12:50:56;100113.38;;;4.48;75.66
75759;BME280;64371;47.566;19.086;2022-12-08T12:54:20;100102.19;;;4.48;75.54
75759;BME280;64371;47.566;19.086;2022-12-08T12:57:25;100097.19;;;4.46;75.80
75759;BME280;64371;47.566;19.086;2022-12-08T13:00:36;100084.38;;;4.45;75.93
75759;BME280;64371;47.566;19.086;2022-12-08T13:03:46;100088.56;;;4.46;75.45
75759;BME280;64371;47.566;19.086;2022-12-08T13:06:49;100079.44;;;4.48;75.87
75759;BME280;64371;47.566;19.086;2022-12-08T13:10:01;100080.31;;;4.54;75.47
75759;BME280;64371;47.566;19.086;2022-12-08T13:16:20;100081.53;;;4.46;75.01
75759;BME280;64371;47.566;19.086;2022-12-08T13:19:25;100084.38;;;4.45;72.72
75759;BME280;64371;47.566;19.086;2022-12-08T13:29:15;100076.69;;;4.33;72.85
75759;BME280;64371;47.566;19.086;2022-12-08T13:32:54;100064.69;;;4.32;69.87
75759;BME280;64371;47.566;19.086;2022-12-08T13:36:25;100076.44;;;4.35;69.49
75759;BME280;64371;47.566;19.086;2022-12-08T13:42:41;100079.38;;;4.38;72.43
75759;BME280;64371;47.566;19.086;2022-12-08T13:45:46;100083.34;;;4.24;74.11
75759;BME280;64371;47.566;19.086;2022-12-08T13:49:12;100079.31;;;4.12;74.22
75759;BME280;64371;47.566;19.086;2022-12-08T13:52:50;100079.25;;;4.07;74.23
75759;BME280;64371;47.566;19.086;2022-12-08T13:56:15;100079.31;;;3.90;74.11
75759;BME280;64371;47.566;19.086;2022-12-08T13:59:42;100076.38;;;3.86;74.70
75759;BME280;64371;47.566;19.086;2022-12-08T14:02:47;100074.31;;;3.88;74.48
75759;BME280;64371;47.566;19.086;2022-12-08T14:05:50;100073.31;;;3.89;75.04
75759;BME280;64371;47.566;19.086;2022-12-08T14:09:16;100070.19;;;3.92;74.84
75759;BME280;64371;47.566;19.086;2022-12-08T14:12:25;100068.38;;;3.93;74.75
75759;BME280;64371;47.566;19.086;2022-12-08T14:15:31;100063.34;;;3.86;74.51
75759;BME280;64371;47.566;19.086;2022-12-08T14:18:39;100061.75;;;3.85;74.92
75759;BME280;64371;47.566;19.086;2022-12-08T14:21:46;100072.97;;;3.86;75.02
75759;BME280;64371;47.566;19.086;2022-12-08T14:24:52;100062.25;;;3.82;74.68
75759;BME280;64371;47.566;19.086;2022-12-08T14:27:57;100071.34;;;3.80;74.49
75759;BME280;64371;47.566;19.086;2022-12-08T14:31:02;100078.06;;;3.76;73.89
75759;BME280;64371;47.566;19.086;2022-12-08T14:34:05;100075.44;;;3.76;73.82
75759;BME280;64371;47.566;19.086;2022-12-08T14:37:11;100065.81;;;3.76;73.87
75759;BME280;64371;47.566;19.086;2022-12-08T14:43:37;100078.56;;;3.73;73.63
75759;BME280;64371;47.566;19.086;2022-12-08T14:47:02;100078.50;;;3.68;73.37
75759;BME280;64371;47.566;19.086;2022-12-08T14:50:36;100082.38;;;3.65;73.54
75759;BME280;64371;47.566;19.086;2022-12-08T14:53:41;100081.25;;;3.61;72.66
75759;BME280;64371;47.566;19.086;2022-12-08T14:56:50;100078.75;;;3.50;73.37
75759;BME280;64371;47.566;19.086;2022-12-08T14:59:53;100089.16;;;3.50;73.24
75759;BME280;64371;47.566;19.086;2022-12-08T15:02:56;100069.81;;;3.46;73.30
75759;BME280;64371;47.566;19.086;2022-12-08T15:06:02;100069.56;;;3.47;73.47
75759;BME280;64371;47.566;19.086;2022-12-08T15:09:27;100067.53;;;3.32;73.88
75759;BME280;64371;47.566;19.086;2022-12-08T15:12:30;100055.16;;;3.23;74.49
75759;BME280;64371;47.566;19.086;2022-12-08T15:15:48;100060.19;;;3.29;74.41
75759;BME280;64371;47.566;19.086;2022-12-08T15:19:16;100061.31;;;3.33;73.78
75759;BME280;64371;47.566;19.086;2022-12-08T15:22:20;100059.19;;;3.30;73.18
75759;BME280;64371;47.566;19.086;2022-12-08T15:25:24;100063.84;;;3.28;73.96
75759;BME280;64371;47.566;19.086;2022-12-08T15:28:27;100056.31;;;3.32;73.86
75759;BME280;64371;47.566;19.086;2022-12-08T15:31:31;100061.31;;;3.33;74.33
75759;BME280;64371;47.566;19.086;2022-12-08T15:34:33;100049.31;;;3.32;74.48
75759;BME280;64371;47.566;19.086;2022-12-08T15:37:38;100055.38;;;3.38;74.78
75759;BME280;64371;47.566;19.086;2022-12-08T15:40:40;100041.75;;;3.31;73.88
75759;BME280;64371;47.566;19.086;2022-12-08T15:43:42;100034.09;;;3.24;74.53
75759;BME280;64371;47.566;19.086;2022-12-08T15:46:45;100028.38;;;3.27;74.63
75759;BME280;64371;47.566;19.086;2022-12-08T15:49:48;100046.41;;;3.29;73.86
75759;BME280;64371;47.566;19.086;2022-12-08T15:52:51;100033.66;;;3.32;73.89
75759;BME280;64371;47.566;19.086;2022-12-08T15:55:54;100033.53;;;3.39;73.97
75759;BME280;64371;47.566;19.086;2022-12-08T15:59:18;100032.00;;;3.43;73.81
75759;BME280;64371;47.566;19.086;2022-12-08T16:02:21;100036.75;;;3.46;74.07
75759;BME280;64371;47.566;19.086;2022-12-08T16:05:28;100030.19;;;3.44;74.58
75759;BME280;64371;47.566;19.086;2022-12-08T16:08:51;100033.81;;;3.43;74.74
75759;BME280;64371;47.566;19.086;2022-12-08T16:12:22;100032.00;;;3.43;74.35
75759;BME280;64371;47.566;19.086;2022-12-08T16:16:05;100022.84;;;3.41;74.39
75759;BME280;64371;47.566;19.086;2022-12-08T16:19:12;100021.81;;;3.42;74.72
75759;BME280;64371;47.566;19.086;2022-12-08T16:22:17;100034.16;;;3.46;75.25
75759;BME280;64371;47.566;19.086;2022-12-08T16:25:40;100030.75;;;3.46;75.23
75759;BME280;64371;47.566;19.086;2022-12-08T16:29:04;100030.97;;;3.44;75.15
75759;BME280;64371;47.566;19.086;2022-12-08T16:32:06;100034.84;;;3.42;75.57
75759;BME280;64371;47.566;19.086;2022-12-08T16:35:12;100046.56;;;3.39;75.49
75759;BME280;64371;47.566;19.086;2022-12-08T16:38:16;100039.75;;;3.38;74.90
75759;BME280;64371;47.566;19.086;2022-12-08T16:41:18;100043.94;;;3.39;74.71
75759;BME280;64371;47.566;19.086;2022-12-08T16:44:40;100041.09;;;3.41;74.73
75759;BME280;64371;47.566;19.086;2022-12-08T16:47:48;100038.00;;;3.44;76.07
75759;BME280;64371;47.566;19.086;2022-12-08T16:50:51;100033.56;;;3.44;76.63
75759;BME280;64371;47.566;19.086;2022-12-08T16:53:55;100025.22;;;3.42;76.08
75759;BME280;64371;47.566;19.086;2022-12-08T16:57:00;100014.50;;;3.39;76.13
75759;BME280;64371;47.566;19.086;2022-12-08T17:00:05;100038.50;;;3.41;77.05
75759;BME280;64371;47.566;19.086;2022-12-08T17:03:11;100041.34;;;3.39;76.71
75759;BME280;64371;47.566;19.086;2022-12-08T17:06:16;100048.59;;;3.37;76.78
75759;BME280;64371;47.566;19.086;2022-12-08T17:09:19;100031.84;;;3.33;77.36
75759;BME280;64371;47.566;19.086;2022-12-08T17:12:22;100035.72;;;3.30;77.00
75759;BME280;64371;47.566;19.086;2022-12-08T17:15:24;100027.13;;;3.30;76.63
75759;BME280;64371;47.566;19.086;2022-12-08T17:18:27;100034.72;;;3.31;76.56
75759;BME280;64371;47.566;19.086;2022-12-08T17:21:29;100040.47;;;3.33;76.67
75759;BME280;64371;47.566;19.086;2022-12-08T17:24:31;100026.09;;;3.31;76.90
75759;BME280;64371;47.566;19.086;2022-12-08T17:27:35;100022.47;;;3.32;77.44
75759;BME280;64371;47.566;19.086;2022-12-08T17:30:37;100014.88;;;3.30;77.47
75759;BME280;64371;47.566;19.086;2022-12-08T17:33:40;100015.91;;;3.29;77.66